Date,TemperatureHighF,TemperatureAvgF,TemperatureLowF,DewpointHighF,DewpointAvgF,DewpointLowF,HumidityHigh,HumidityAvg,HumidityLow,PressureMaxIn,PressureMinIn,WindSpeedMaxMPH,WindSpeedAvgMPH,GustSpeedMaxMPH,PrecipitationSumIn
2013-3-1,38,29,24,28,22,18,92,76,55,29.98,29.82,8,2,8,0.04
2013-3-2,42,23,7,22,13,2,86,67,39,30.00,29.91,6,1,6,0.00
2013-3-3,43,23,3,24,11,-2,89,63,33,29.92,29.75,5,1,5,0.00
2013-3-4,41,31,25,29,24,16,90,76,59,29.77,29.58,8,2,8,0.07
2013-3-5,38,31,28,31,26,23,92,83,72,29.88,29.60,8,1,8,0.16
2013-3-6,35,26,18,24,20,15,89,77,62,30.07,29.88,6,1,6,0.02
2013-3-7,42,21,3,27,14,-1,87,75,53,30.12,30.04,5,1,5,0.04
2013-3-8,48,41,36,34,31,29,84,70,55,30.09,29.90,8,2,8,0.00
2013-3-9,43,39,37,42,36,33,94,89,79,29.90,29.46,8,2,8,0.79
2013-3-10,47,42,36,45,40,35,95,94,92,29.46,29.26,7,1,7,1.10
2013-3-11,37,33,29,36,30,24,96,90,80,29.63,29.32,9,1,9,0.07
2013-3-12,35,29,22,30,24,20,92,82,67,29.86,29.62,9,2,9,0.02
2013-3-13,41,28,18,22,18,13,85,67,40,30.09,29.86,6,1,6,0.00
2013-3-14,54,35,18,35,25,14,90,71,47,30.06,29.77,8,1,8,0.00
2013-3-15,52,37,24,39,31,21,93,80,61,29.78,29.42,6,1,6,0.00
2013-3-16,39,35,31,34,31,26,94,86,74,29.86,29.43,6,1,6,0.01
2013-3-17,40,32,26,26,23,20,81,69,54,29.89,29.73,10,2,10,0.00
2013-3-18,22,22,22,15,15,14,75,74,73,29.65,29.64,5,2,6,0.00
2013-3-19,35,22,16,18,13,9,75,66,47,29.86,29.63,10,3,10,0.00
2013-3-20,31,22,14,16,10,6,74,61,42,29.94,29.82,9,2,9,0.00
2013-3-21,41,23,8,17,11,3,83,61,35,29.83,29.71,6,1,6,0.00
2013-3-22,49,30,13,24,18,8,87,63,34,29.79,29.70,7,1,7,0.00
2013-3-23,49,36,24,26,23,18,84,61,37,29.82,29.69,9,2,9,0.00
2013-3-24,34,31,29,30,28,25,93,89,68,29.72,29.48,8,2,8,0.14
2013-3-25,45,34,28,32,27,25,93,76,52,29.88,29.56,8,1,8,0.19
2013-3-26,47,36,23,33,28,20,90,73,54,30.01,29.88,6,1,6,0.00
2013-3-27,58,39,27,33,27,20,85,64,39,30.07,29.98,8,1,8,0.00
2013-3-28,60,40,20,35,28,16,91,65,37,30.07,29.95,8,1,8,0.00
2013-3-29,64,45,25,38,31,22,91,64,32,30.01,29.89,6,1,6,0.00
2013-3-30,54,47,32,48,40,28,93,78,59,29.91,29.59,10,2,10,0.00
2013-3-31,58,48,39,49,38,27,96,70,34,29.72,29.54,11,2,11,0.00